Time;durP1;ratioP1;P1;durP2;ratioP2;P2;SDS_P1;SDS_P2;PMS_P1;PMS_P2;Temp;Humidity;BMP_temperature;BMP_pressure;BME280_temperature;BME280_humidity;BME280_pressure;Samples;Min_cycle;Max_cycle;Signal;HPM_P1;HPM_P2
2024/01/22 00:00:40;;;;;;;6.33;2.60;;;;;;;4.83;100.00;100763.28;5982086;28;20027;-72
2024/01/22 00:03:35;;;;;;;7.43;2.67;;;;;;;4.87;100.00;100750.75;5991207;28;20498;-72
2024/01/22 00:06:30;;;;;;;8.77;3.20;;;;;;;4.89;100.00;100751.50;5990451;28;20591;-72
2024/01/22 00:09:26;;;;;;;6.57;3.17;;;;;;;4.91;100.00;100741.72;5981066;28;20471;-71
2024/01/22 00:12:21;;;;;;;6.90;3.03;;;;;;;4.94;100.00;100738.88;5984229;28;20472;-72
2024/01/22 00:15:17;;;;;;;8.13;3.17;;;;;;;4.94;100.00;100746.75;5987050;28;20278;-73
2024/01/22 00:18:12;;;;;;;8.10;2.60;;;;;;;5.01;100.00;100755.88;5992448;28;20034;-71
2024/01/22 00:21:07;;;;;;;8.17;3.23;;;;;;;5.13;100.00;100739.22;5987792;28;20044;-73
2024/01/22 00:24:03;;;;;;;8.70;3.40;;;;;;;5.17;100.00;100698.63;5986683;28;20034;-72
2024/01/22 00:26:58;;;;;;;8.68;2.58;;;;;;;5.15;100.00;100684.75;5986215;28;20398;-71
2024/01/22 00:29:53;;;;;;;8.23;2.63;;;;;;;5.04;100.00;100703.09;5972962;28;20041;-72
2024/01/22 00:32:51;;;;;;;8.20;3.03;;;;;;;5.21;100.00;100714.06;5987680;28;20038;-72
2024/01/22 00:35:46;;;;;;;8.18;3.40;;;;;;;5.16;100.00;100707.47;5980020;28;20105;-72
2024/01/22 00:38:42;;;;;;;7.03;2.57;;;;;;;5.19;100.00;100691.47;5991265;28;20035;-73
2024/01/22 00:41:37;;;;;;;8.15;2.50;;;;;;;5.23;100.00;100693.75;5987394;28;20035;-72
2024/01/22 00:44:33;;;;;;;5.97;2.40;;;;;;;5.23;100.00;100693.75;5985434;28;20039;-73
2024/01/22 00:47:28;;;;;;;5.97;2.40;;;;;;;5.23;100.00;100662.22;5991108;28;20061;-72
2024/01/22 00:50:23;;;;;;;4.50;2.30;;;;;;;5.29;100.00;100674.91;5986816;28;20031;-72
2024/01/22 00:53:18;;;;;;;6.73;2.90;;;;;;;5.30;100.00;100667.84;5979655;28;20050;-72
2024/01/22 00:56:14;;;;;;;7.10;2.20;;;;;;;5.34;100.00;100698.22;5984866;28;20059;-72
2024/01/22 00:59:09;;;;;;;3.80;1.80;;;;;;;5.41;100.00;100654.75;5977263;28;20079;-72
2024/01/22 01:02:04;;;;;;;7.40;2.50;;;;;;;5.36;100.00;100641.94;5989125;28;20038;-72
2024/01/22 01:05:00;;;;;;;6.97;2.60;;;;;;;5.33;100.00;100612.41;5987177;28;20063;-71
2024/01/22 01:07:55;;;;;;;6.17;2.37;;;;;;;5.33;100.00;100636.91;5979175;28;20478;-73
2024/01/22 01:10:50;;;;;;;8.73;2.77;;;;;;;5.33;100.00;100591.38;5984744;28;20262;-73
2024/01/22 01:13:46;;;;;;;7.67;2.43;;;;;;;5.32;100.00;100593.19;5981010;28;20331;-72
2024/01/22 01:16:41;;;;;;;6.67;2.83;;;;;;;5.40;100.00;100592.63;5981539;28;20091;-72
2024/01/22 01:19:39;;;;;;;5.35;2.63;;;;;;;5.42;100.00;100569.66;5982383;28;20090;-72
2024/01/22 01:22:34;;;;;;;6.40;2.28;;;;;;;5.39;100.00;100543.59;5988604;28;20043;-72
2024/01/22 01:25:30;;;;;;;8.73;3.03;;;;;;;5.37;100.00;100577.06;5986428;28;20035;-72
2024/01/22 01:28:25;;;;;;;5.13;2.57;;;;;;;5.35;100.00;100513.25;5976150;28;20059;-72
2024/01/22 01:31:20;;;;;;;8.67;3.77;;;;;;;5.21;100.00;100476.66;5991463;28;20041;-73
2024/01/22 01:34:15;;;;;;;6.63;2.92;;;;;;;5.12;100.00;100529.94;5980863;28;20483;-72
2024/01/22 01:37:11;;;;;;;7.57;2.53;;;;;;;5.06;100.00;100554.03;5987409;28;20042;-73
2024/01/22 01:40:07;;;;;;;9.90;3.30;;;;;;;5.03;100.00;100501.75;5986641;28;20035;-72
2024/01/22 01:43:02;;;;;;;11.27;3.63;;;;;;;5.03;100.00;100496.47;5981814;28;20079;-73
2024/01/22 01:45:57;;;;;;;8.03;2.73;;;;;;;5.04;100.00;100503.38;5968390;28;20443;-73
2024/01/22 01:48:53;;;;;;;8.77;2.87;;;;;;;4.99;100.00;100476.63;5974143;28;20027;-73
2024/01/22 01:51:48;;;;;;;6.90;2.35;;;;;;;5.13;100.00;100473.78;5957570;28;20405;-73
2024/01/22 01:54:45;;;;;;;5.47;2.47;;;;;;;5.29;100.00;100471.66;5973207;28;20028;-72
2024/01/22 01:57:40;;;;;;;8.18;2.60;;;;;;;5.31;100.00;100459.22;5957213;28;20121;-72
2024/01/22 02:00:36;;;;;;;6.32;2.35;;;;;;;5.30;100.00;100457.53;5958586;28;20499;-73
2024/01/22 02:03:31;;;;;;;4.70;2.47;;;;;;;5.43;100.00;100439.03;5955839;28;20478;-73
2024/01/22 02:06:26;;;;;;;6.80;3.07;;;;;;;5.47;100.00;100422.91;5973811;28;20047;-72
2024/01/22 02:09:22;;;;;;;5.57;2.43;;;;;;;5.53;100.00;100406.63;5973442;28;20114;-73
2024/01/22 02:12:18;;;;;;;5.07;2.50;;;;;;;5.55;100.00;100415.22;5973864;28;20086;-72
2024/01/22 02:15:13;;;;;;;4.18;2.13;;;;;;;5.62;100.00;100416.44;5973374;28;20476;-73
2024/01/22 02:18:08;;;;;;;7.85;1.95;;;;;;;5.56;100.00;100400.28;5976662;28;20038;-73
2024/01/22 02:21:04;;;;;;;7.60;2.43;;;;;;;5.73;100.00;100389.28;5982068;28;20062;-72
2024/01/22 02:23:59;;;;;;;6.97;2.42;;;;;;;5.84;100.00;100363.75;5983011;28;20031;-72
2024/01/22 02:26:55;;;;;;;7.17;2.50;;;;;;;5.81;100.00;100348.25;5979601;28;20045;-71
2024/01/22 02:29:50;;;;;;;6.10;2.43;;;;;;;5.76;100.00;100318.81;5977522;28;20024;-73
2024/01/22 02:32:45;;;;;;;5.55;2.17;;;;;;;5.89;100.00;100377.44;5981122;28;20038;-72
2024/01/22 02:35:41;;;;;;;4.87;2.27;;;;;;;5.84;100.00;100326.91;5980279;28;20384;-73
2024/01/22 02:38:36;;;;;;;7.83;2.40;;;;;;;5.95;100.00;100291.88;5966792;28;20039;-73
2024/01/22 02:41:31;;;;;;;6.27;2.37;;;;;;;6.09;100.00;100274.94;5982557;28;20046;-73
2024/01/22 02:44:27;;;;;;;6.78;2.40;;;;;;;5.95;100.00;100303.22;5982946;28;20114;-72
2024/01/22 02:47:22;;;;;;;8.57;2.90;;;;;;;5.99;100.00;100306.44;5980829;28;20678;-73
2024/01/22 02:50:17;;;;;;;10.48;3.35;;;;;;;6.02;100.00;100266.72;5980409;28;20062;-73
2024/01/22 02:53:13;;;;;;;4.97;2.50;;;;;;;6.12;100.00;100278.13;5982402;28;20042;-73
2024/01/22 02:56:08;;;;;;;6.07;2.33;;;;;;;6.12;100.00;100261.50;5976388;28;20050;-73
2024/01/22 02:59:03;;;;;;;5.47;2.30;;;;;;;6.16;100.00;100278.72;5976157;28;20475;-73
2024/01/22 03:01:58;;;;;;;6.23;2.17;;;;;;;6.26;100.00;100283.09;5976250;28;20479;-74
2024/01/22 03:04:54;;;;;;;4.40;1.80;;;;;;;6.30;100.00;100273.13;5976060;28;20035;-74
2024/01/22 03:07:49;;;;;;;3.73;1.63;;;;;;;6.27;100.00;100276.03;5973435;28;20063;-72
2024/01/22 03:10:45;;;;;;;3.77;2.03;;;;;;;6.32;100.00;100264.16;5973213;28;20055;-73
2024/01/22 03:13:41;;;;;;;10.02;2.35;;;;;;;6.41;100.00;100257.25;5972967;28;20063;-73
2024/01/22 03:16:36;;;;;;;4.90;2.05;;;;;;;6.38;100.00;100247.00;5979433;28;20038;-74
2024/01/22 03:19:31;;;;;;;7.03;2.03;;;;;;;6.40;100.00;100231.88;5977250;28;20031;-74
2024/01/22 03:22:26;;;;;;;3.70;1.63;;;;;;;6.50;100.00;100236.22;5975528;28;20055;-73
2024/01/22 03:25:22;;;;;;;3.93;1.60;;;;;;;6.55;100.00;100247.19;5979423;28;20474;-73
2024/01/22 03:28:17;;;;;;;14.53;2.77;;;;;;;6.53;100.00;100230.69;5977837;28;20038;-74
2024/01/22 03:31:26;;;;;;;5.00;1.87;;;;;;;6.58;100.00;100228.50;5980086;28;20035;-73
2024/01/22 03:34:21;;;;;;;7.15;2.50;;;;;;;6.63;100.00;100222.00;5977316;28;20287;-73
2024/01/22 03:37:16;;;;;;;5.68;2.17;;;;;;;6.62;100.00;100213.28;5979890;28;20046;-74
2024/01/22 03:40:12;;;;;;;5.70;2.60;;;;;;;6.58;100.00;100203.94;5976539;28;20143;-73
2024/01/22 03:43:07;;;;;;;3.58;1.85;;;;;;;6.62;100.00;100212.44;5982545;28;20030;-72
2024/01/22 03:46:02;;;;;;;6.70;2.00;;;;;;;6.59;100.00;100197.72;5976305;28;20031;-73
2024/01/22 03:48:58;;;;;;;4.38;1.95;;;;;;;6.64;100.00;100206.06;5975401;28;20109;-72
2024/01/22 03:51:53;;;;;;;4.27;1.80;;;;;;;6.61;100.00;100198.44;5982149;28;20042;-73
2024/01/22 03:54:48;;;;;;;9.77;2.43;;;;;;;6.67;100.00;100162.81;5979188;28;20043;-72
2024/01/22 03:57:44;;;;;;;5.47;2.10;;;;;;;6.62;100.00;100189.56;5980307;28;20048;-72
2024/01/22 04:00:39;;;;;;;5.20;1.90;;;;;;;6.64;100.00;100207.84;5975919;28;20512;-72
2024/01/22 04:03:35;;;;;;;6.70;1.80;;;;;;;6.67;100.00;100183.88;5980422;28;20082;-72
2024/01/22 04:06:30;;;;;;;6.35;2.40;;;;;;;6.82;100.00;100191.28;5991922;28;20023;-73
2024/01/22 04:09:25;;;;;;;8.27;2.03;;;;;;;6.75;100.00;100171.72;5980694;28;20506;-73
2024/01/22 04:12:21;;;;;;;3.87;1.90;;;;;;;6.77;100.00;100175.03;5981806;28;20043;-73
2024/01/22 04:15:16;;;;;;;6.27;1.80;;;;;;;6.76;100.00;100164.66;5975797;28;20031;-73
2024/01/22 04:18:11;;;;;;;4.97;2.07;;;;;;;6.90;100.00;100165.06;5993065;28;20174;-72
2024/01/22 04:21:07;;;;;;;5.53;1.70;;;;;;;6.93;100.00;100199.06;5986399;28;20085;-72
2024/01/22 04:24:03;;;;;;;6.82;1.50;;;;;;;6.96;100.00;100158.41;5984990;28;20364;-73
2024/01/22 04:26:58;;;;;;;2.75;1.60;;;;;;;7.05;100.00;100168.16;5990042;28;20042;-72
2024/01/22 04:29:54;;;;;;;7.07;1.85;;;;;;;7.03;100.00;100151.66;5976394;28;20031;-72
2024/01/22 04:32:49;;;;;;;5.90;2.05;;;;;;;6.82;100.00;100135.94;5985534;28;20031;-73
2024/01/22 04:35:44;;;;;;;6.20;2.23;;;;;;;6.91;100.00;100135.13;5980214;28;20535;-72
2024/01/22 04:38:40;;;;;;;4.73;1.70;;;;;;;6.84;100.00;100144.56;5990432;28;20065;-72
2024/01/22 04:41:35;;;;;;;4.47;1.63;;;;;;;6.84;100.00;100122.63;5982340;28;20287;-72
2024/01/22 04:44:30;;;;;;;4.03;1.70;;;;;;;6.85;100.00;100127.75;5990764;28;20110;-72
2024/01/22 04:47:26;;;;;;;7.07;1.57;;;;;;;6.92;100.00;100131.53;5990265;28;20686;-72
2024/01/22 04:50:21;;;;;;;4.07;1.57;;;;;;;6.87;100.00;100117.94;5987303;28;20270;-72
2024/01/22 04:53:16;;;;;;;2.83;1.40;;;;;;;6.89;100.00;100116.00;5976303;28;20035;-73
2024/01/22 04:56:12;;;;;;;4.20;1.53;;;;;;;6.94;100.00;100113.78;5976358;28;20061;-72
2024/01/22 04:59:08;;;;;;;3.40;1.50;;;;;;;6.97;100.00;100097.69;5982250;28;20114;-71
2024/01/22 05:02:03;;;;;;;3.38;1.50;;;;;;;6.91;100.00;100082.41;5979597;28;20171;-73
2024/01/22 05:05:00;;;;;;;3.65;1.58;;;;;;;6.93;100.00;100079.66;5986477;28;20430;-73
2024/01/22 05:07:56;;;;;;;5.22;1.50;;;;;;;6.98;100.00;100077.44;5978080;28;20082;-73
2024/01/22 05:10:51;;;;;;;3.42;1.65;;;;;;;7.07;100.00;100072.16;5983157;28;20036;-73
2024/01/22 05:13:51;;;;;;;2.90;1.50;;;;;;;7.02;100.00;100057.72;5997734;28;20035;-72
2024/01/22 05:16:47;;;;;;;5.53;1.80;;;;;;;7.13;100.00;100076.88;5989794;28;20836;-73
2024/01/22 05:19:42;;;;;;;3.77;1.80;;;;;;;7.13;100.00;100045.22;5992300;28;20027;-73
2024/01/22 05:22:37;;;;;;;4.25;1.65;;;;;;;7.30;100.00;100056.03;5988713;28;20027;-72
2024/01/22 05:25:33;;;;;;;2.50;1.40;;;;;;;7.31;100.00;100040.06;5973424;28;20035;-73
2024/01/22 05:28:28;;;;;;;2.20;1.10;;;;;;;7.37;100.00;100042.13;5987972;28;20031;-72
2024/01/22 05:31:23;;;;;;;3.93;1.10;;;;;;;7.44;100.00;100021.31;5987273;28;20032;-72
2024/01/22 05:34:19;;;;;;;3.00;1.60;;;;;;;7.42;100.00;100023.25;5989967;28;20697;-72
2024/01/22 05:37:14;;;;;;;3.80;1.30;;;;;;;7.45;100.00;100017.66;5993575;28;20031;-73
2024/01/22 05:40:16;;;;;;;5.30;1.30;;;;;;;7.46;100.00;100028.09;6002770;28;20031;-72
2024/01/22 05:43:12;;;;;;;5.63;1.35;;;;;;;7.43;100.00;100024.91;5981859;28;20302;-72
2024/01/22 05:46:07;;;;;;;3.42;1.40;;;;;;;7.38;100.00;100025.34;5995247;28;20609;-73
2024/01/22 05:49:02;;;;;;;3.70;1.40;;;;;;;7.21;100.00;100015.50;5979905;28;20550;-72
2024/01/22 05:51:58;;;;;;;5.73;1.30;;;;;;;7.27;100.00;100024.66;5991410;28;20130;-73
2024/01/22 05:54:53;;;;;;;4.57;1.70;;;;;;;7.27;100.00;100016.75;5971678;28;20299;-72
2024/01/22 05:57:49;;;;;;;4.10;1.43;;;;;;;7.26;100.00;100007.16;5981677;28;20051;-71
2024/01/22 06:00:44;;;;;;;7.23;1.37;;;;;;;7.13;100.00;99987.22;5986134;28;20039;-72
2024/01/22 06:03:40;;;;;;;5.03;1.37;;;;;;;7.01;100.00;100001.53;5981597;28;20031;-71
2024/01/22 06:06:36;;;;;;;5.68;1.35;;;;;;;6.95;100.00;99994.22;5989468;28;20115;-72
2024/01/22 06:09:32;;;;;;;3.03;1.20;;;;;;;6.78;100.00;99981.72;5996079;28;20132;-70
2024/01/22 06:12:27;;;;;;;3.30;1.40;;;;;;;6.66;100.00;99980.19;5998807;28;20030;-70
2024/01/22 06:15:22;;;;;;;2.97;1.40;;;;;;;6.62;100.00;99978.84;5989581;28;20358;-69
2024/01/22 06:18:19;;;;;;;4.83;1.50;;;;;;;6.50;100.00;99972.88;5994407;28;20329;-71
2024/01/22 06:21:15;;;;;;;4.68;1.25;;;;;;;6.50;100.00;99983.41;5999268;28;20030;-70
2024/01/22 06:24:10;;;;;;;3.58;1.67;;;;;;;6.47;100.00;99961.75;5986937;28;20084;-71
2024/01/22 06:27:06;;;;;;;5.00;1.40;;;;;;;6.55;100.00;99975.06;5990502;28;20037;-71
2024/01/22 06:30:03;;;;;;;5.03;1.42;;;;;;;6.49;100.00;99967.75;5980956;28;20280;-70
2024/01/22 06:32:58;;;;;;;2.97;1.50;;;;;;;6.49;100.00;99941.41;5986422;28;20130;-72
2024/01/22 06:35:53;;;;;;;4.27;2.07;;;;;;;6.53;100.00;99956.78;5988711;28;20027;-71
2024/01/22 06:38:49;;;;;;;6.00;1.73;;;;;;;6.53;100.00;99946.25;5993464;28;20043;-71
2024/01/22 06:41:44;;;;;;;3.37;1.50;;;;;;;6.71;100.00;99970.09;5980728;28;20036;-71
2024/01/22 06:44:39;;;;;;;4.73;1.67;;;;;;;6.68;100.00;99946.66;5987528;28;20089;-71
2024/01/22 06:47:35;;;;;;;2.80;1.27;;;;;;;6.78;100.00;99944.84;5980960;28;20439;-71
2024/01/22 06:50:30;;;;;;;3.75;1.15;;;;;;;6.87;100.00;99933.47;5975872;28;20031;-72
2024/01/22 06:53:25;;;;;;;3.90;1.30;;;;;;;6.84;100.00;99933.75;5990016;28;20129;-72
2024/01/22 06:56:21;;;;;;;3.60;1.43;;;;;;;6.94;100.00;99955.63;5972133;28;20274;-72
2024/01/22 06:59:16;;;;;;;2.60;1.30;;;;;;;6.98;100.00;99956.19;5962698;28;20101;-71
2024/01/22 07:02:11;;;;;;;4.23;1.40;;;;;;;7.00;100.00;99943.69;5979796;28;20406;-71
2024/01/22 07:05:08;;;;;;;2.20;1.00;;;;;;;7.08;100.00;99946.44;5980917;28;20105;-71
2024/01/22 07:08:04;;;;;;;3.60;1.10;;;;;;;7.09;100.00;99929.66;5971094;28;20043;-72
2024/01/22 07:10:59;;;;;;;5.43;1.35;;;;;;;7.15;100.00;99969.47;5978978;28;20038;-72
2024/01/22 07:13:54;;;;;;;1.80;1.07;;;;;;;7.09;100.00;99938.38;5979912;28;20154;-71
2024/01/22 07:16:50;;;;;;;3.13;1.10;;;;;;;7.15;100.00;99963.34;5979736;28;20479;-72
2024/01/22 07:19:45;;;;;;;2.63;1.20;;;;;;;7.10;100.00;99950.59;5976322;28;20287;-72
2024/01/22 07:22:44;;;;;;;4.03;1.50;;;;;;;7.07;100.00;99944.78;5970029;28;20059;-72
2024/01/22 07:25:40;;;;;;;2.88;1.35;;;;;;;7.01;100.00;99943.53;5978549;28;20082;-71
2024/01/22 07:28:35;;;;;;;2.05;0.82;;;;;;;7.08;100.00;99975.44;5967656;28;20063;-73
2024/01/22 07:31:30;;;;;;;4.20;0.97;;;;;;;7.05;100.00;99965.19;5974251;28;20163;-72
2024/01/22 07:34:26;;;;;;;2.77;1.00;;;;;;;6.92;100.00;99956.75;5981882;28;20041;-73
2024/01/22 07:37:21;;;;;;;3.30;0.90;;;;;;;7.04;100.00;99966.97;5974019;28;20047;-72
2024/01/22 07:40:18;;;;;;;3.40;1.20;;;;;;;7.05;100.00;99989.75;5979261;28;20270;-72
2024/01/22 07:43:13;;;;;;;5.00;2.00;;;;;;;6.98;100.00;99966.75;5975125;28;20436;-72
2024/01/22 07:46:09;;;;;;;2.35;1.10;;;;;;;7.04;100.00;99966.16;5969205;28;20069;-73
2024/01/22 07:49:04;;;;;;;3.47;1.00;;;;;;;7.04;100.00;99974.88;5981531;28;20126;-73
2024/01/22 07:51:59;;;;;;;2.63;0.90;;;;;;;7.11;100.00;99978.66;5977340;28;20095;-73
2024/01/22 07:54:55;;;;;;;4.75;1.23;;;;;;;7.08;100.00;99988.63;5976626;28;20279;-73
2024/01/22 07:57:50;;;;;;;1.87;0.90;;;;;;;7.15;100.00;99984.44;5976316;28;20027;-73
2024/01/22 08:00:45;;;;;;;2.97;1.15;;;;;;;7.05;100.00;99979.19;5983530;28;20023;-72
2024/01/22 08:03:41;;;;;;;2.07;0.93;;;;;;;7.18;100.00;99997.34;5969731;28;20070;-73
2024/01/22 08:06:36;;;;;;;2.87;1.00;;;;;;;7.09;100.00;99975.28;5979510;28;20443;-73
2024/01/22 08:09:32;;;;;;;2.80;0.97;;;;;;;7.12;100.00;99979.47;5974411;28;20321;-71
2024/01/22 08:12:28;;;;;;;4.28;1.10;;;;;;;7.13;100.00;99992.50;5977430;28;20065;-72
2024/01/22 08:15:23;;;;;;;2.75;1.20;;;;;;;7.17;100.00;99983.31;5974476;28;20023;-72
2024/01/22 08:18:19;;;;;;;3.13;1.20;;;;;;;7.19;100.00;99978.75;5979716;28;20113;-73
2024/01/22 08:21:14;;;;;;;3.20;1.05;;;;;;;7.16;100.00;99976.41;5980605;28;20282;-73
2024/01/22 08:24:10;;;;;;;2.90;1.00;;;;;;;7.19;100.00;99983.19;5977131;28;20043;-72
2024/01/22 08:27:05;;;;;;;3.37;1.13;;;;;;;7.15;100.00;99985.28;5977130;28;20031;-73
2024/01/22 08:30:01;;;;;;;2.17;1.07;;;;;;;7.17;100.00;99972.78;5985538;28;20294;-73
2024/01/22 08:32:56;;;;;;;1.55;1.02;;;;;;;7.20;100.00;99976.97;5989750;28;20493;-73
2024/01/22 08:35:51;;;;;;;1.73;0.80;;;;;;;7.19;100.00;99964.75;5975294;28;20039;-73
2024/01/22 08:38:46;;;;;;;2.50;0.83;;;;;;;7.18;100.00;99990.28;5972568;28;20114;-73
2024/01/22 08:41:42;;;;;;;3.33;1.03;;;;;;;7.14;100.00;99975.72;5977748;28;20027;-72
2024/01/22 08:44:38;;;;;;;1.43;0.80;;;;;;;7.21;100.00;99960.16;5987104;28;20086;-73
2024/01/22 08:47:33;;;;;;;1.40;0.80;;;;;;;7.26;100.00;99957.06;5973688;28;20031;-74
2024/01/22 08:50:29;;;;;;;1.77;0.90;;;;;;;7.34;100.00;99971.22;5973270;28;20062;-72
2024/01/22 08:53:25;;;;;;;3.88;1.15;;;;;;;7.37;100.00;99970.94;5978841;28;20030;-72
2024/01/22 08:56:21;;;;;;;2.70;0.90;;;;;;;7.23;100.00;99975.84;5977005;28;20619;-72
2024/01/22 08:59:16;;;;;;;5.50;0.87;;;;;;;7.01;100.00;99972.53;5972316;28;20042;-72
2024/01/22 09:02:11;;;;;;;4.35;1.30;;;;;;;7.02;100.00;99990.03;5973897;28;20678;-71
2024/01/22 09:05:10;;;;;;;1.80;0.88;;;;;;;6.98;100.00;99991.28;5979236;28;20110;-71
2024/01/22 09:08:06;;;;;;;2.78;0.90;;;;;;;7.02;100.00;100007.63;5984275;28;20558;-72
2024/01/22 09:11:02;;;;;;;2.97;0.80;;;;;;;7.01;100.00;99988.34;5979256;28;20031;-72
2024/01/22 09:13:57;;;;;;;1.30;0.75;;;;;;;7.04;100.00;99995.97;5973440;28;20160;-73
2024/01/22 09:16:52;;;;;;;1.93;0.93;;;;;;;7.08;100.00;99988.63;5969058;28;20503;-72
2024/01/22 09:19:48;;;;;;;1.87;0.90;;;;;;;6.98;100.00;99991.28;5964331;28;20078;-72
2024/01/22 09:22:43;;;;;;;2.33;1.00;;;;;;;6.99;100.00;99990.31;5966586;28;20035;-71
2024/01/22 09:25:41;;;;;;;2.30;1.00;;;;;;;6.92;100.00;99986.59;5966835;28;20290;-72
2024/01/22 09:28:37;;;;;;;3.75;1.08;;;;;;;6.87;100.00;100003.78;5967204;28;20027;-71
2024/01/22 09:31:34;;;;;;;3.80;1.10;;;;;;;6.82;100.00;100008.66;5975488;28;20035;-71
2024/01/22 09:34:29;;;;;;;2.83;0.73;;;;;;;6.79;100.00;100001.84;5965798;28;20036;-70
2024/01/22 09:37:25;;;;;;;3.40;0.97;;;;;;;6.71;100.00;99985.91;5971787;28;20028;-71
2024/01/22 09:40:24;;;;;;;4.90;1.50;;;;;;;6.69;100.00;99998.38;5970485;28;20054;-71
2024/01/22 09:43:22;;;;;;;3.47;1.50;;;;;;;6.51;100.00;99976.34;5976662;28;20420;-71
2024/01/22 09:46:18;;;;;;;3.20;1.00;;;;;;;6.59;100.00;99989.63;5970386;28;20541;-71
2024/01/22 09:49:13;;;;;;;3.73;1.50;;;;;;;6.60;100.00;99991.31;5973355;28;20038;-72
2024/01/22 09:52:15;;;;;;;3.60;1.02;;;;;;;6.63;100.00;99977.88;5984117;28;20853;-72
2024/01/22 09:55:13;;;;;;;2.17;1.02;;;;;;;6.70;100.00;99986.88;5968103;28;20054;-71
2024/01/22 09:58:09;;;;;;;5.90;1.92;;;;;;;6.72;100.00;99974.38;5971847;28;20043;-72
2024/01/22 10:01:07;;;;;;;3.03;1.10;;;;;;;6.88;100.00;99971.16;5962118;28;20031;-73
2024/01/22 10:04:04;;;;;;;2.33;1.20;;;;;;;6.88;100.00;99966.72;5959925;28;20039;-72
2024/01/22 10:07:01;;;;;;;2.30;1.20;;;;;;;6.94;100.00;99960.91;5966448;28;20042;-72
2024/01/22 10:09:56;;;;;;;1.65;0.90;;;;;;;6.96;100.00;99955.47;5967876;28;20102;-73
2024/01/22 10:13:03;;;;;;;1.63;0.90;;;;;;;6.97;100.00;99962.44;5970641;28;20047;-72
2024/01/22 10:16:09;;;;;;;1.85;1.00;;;;;;;7.09;100.00;99975.28;5978126;28;20094;-72
2024/01/22 10:19:07;;;;;;;3.53;1.00;;;;;;;7.12;100.00;99964.47;5986995;28;20608;-73
2024/01/22 10:22:02;;;;;;;2.53;1.25;;;;;;;7.14;100.00;99973.09;5979406;28;20376;-72
2024/01/22 10:25:00;;;;;;;2.60;1.30;;;;;;;7.21;100.00;99957.50;5976699;28;20042;-71
2024/01/22 10:28:17;;;;;;;3.80;1.40;;;;;;;7.20;100.00;99950.59;5989366;28;20034;-73
2024/01/22 10:31:13;;;;;;;3.97;1.40;;;;;;;7.23;100.00;99960.81;5979221;28;20051;-73
2024/01/22 10:34:08;;;;;;;9.13;2.17;;;;;;;7.24;100.00;99951.13;5984846;28;20034;-72
2024/01/22 10:37:10;;;;;;;3.47;1.30;;;;;;;7.35;100.00;99949.16;5983568;28;20028;-72
2024/01/22 10:40:10;;;;;;;6.68;1.30;;;;;;;7.44;100.00;99942.19;5990541;28;20502;-72
2024/01/22 10:43:28;;;;;;;2.80;0.90;;;;;;;7.62;100.00;99943.06;5995513;28;20031;-71
2024/01/22 10:46:24;;;;;;;2.92;1.10;;;;;;;7.68;100.00;99935.41;5982464;28;20034;-71
2024/01/22 10:49:20;;;;;;;2.85;0.90;;;;;;;7.78;100.00;99920.34;5965591;28;20063;-72
2024/01/22 10:52:15;;;;;;;1.90;0.80;;;;;;;7.90;100.00;99935.97;5991929;28;20035;-72
2024/01/22 10:55:11;;;;;;;0.95;0.70;;;;;;;7.90;100.00;99925.41;5968270;28;20046;-72
2024/01/22 10:58:21;;;;;;;1.37;0.73;;;;;;;7.97;100.00;99921.19;5978340;28;20122;-72
2024/01/22 11:01:22;;;;;;;2.05;0.70;;;;;;;8.06;100.00;99918.50;5973886;28;20499;-73
2024/01/22 11:04:23;;;;;;;2.85;0.82;;;;;;;8.08;100.00;99913.06;5982944;28;20646;-72
2024/01/22 11:07:23;;;;;;;1.33;0.65;;;;;;;8.17;100.00;99915.66;5984823;28;20123;-71
2024/01/22 11:10:22;;;;;;;2.03;0.60;;;;;;;8.22;100.00;99918.66;5980699;28;20130;-72
2024/01/22 11:13:18;;;;;;;1.63;0.93;;;;;;;8.18;100.00;99896.16;5990716;28;20110;-73
2024/01/22 11:16:13;;;;;;;2.85;1.20;;;;;;;8.14;100.00;99905.38;5990928;28;20037;-72
2024/01/22 11:19:22;;;;;;;6.40;1.52;;;;;;;8.15;100.00;99900.94;5986565;28;20110;-73
2024/01/22 11:22:22;;;;;;;2.63;0.90;;;;;;;8.16;100.00;99897.28;5984213;28;20063;-72
2024/01/22 11:25:17;;;;;;;2.58;1.08;;;;;;;8.19;100.00;99905.75;5991350;28;20407;-72
2024/01/22 11:28:15;;;;;;;2.88;1.02;;;;;;;8.17;100.00;99894.53;5988789;28;20634;-72
2024/01/22 11:31:25;;;;;;;1.27;0.73;;;;;;;8.24;100.00;99886.81;5992406;28;20067;-72
2024/01/22 11:34:38;;;;;;;1.20;0.65;;;;;;;8.38;100.00;99884.50;5972456;28;20126;-73
2024/01/22 11:37:35;;;;;;;3.80;1.10;;;;;;;8.45;100.00;99875.97;5996850;28;20034;-72
2024/01/22 11:40:47;;;;;;;0.77;0.50;;;;;;;8.50;100.00;99895.66;5990287;28;20639;-72
2024/01/22 11:43:42;;;;;;;2.00;0.80;;;;;;;8.50;100.00;99874.53;5977540;28;20027;-73
2024/01/22 11:46:38;;;;;;;2.47;0.80;;;;;;;8.49;100.00;99877.31;5985530;28;20027;-73
2024/01/22 11:49:33;;;;;;;4.13;0.90;;;;;;;8.47;100.00;99874.00;5983303;28;20035;-72
2024/01/22 11:52:29;;;;;;;3.43;0.80;;;;;;;8.55;100.00;99887.28;5988509;28;20043;-73
2024/01/22 11:55:24;;;;;;;2.83;0.90;;;;;;;8.44;100.00;99866.38;5995597;28;20031;-73
2024/01/22 11:58:20;;;;;;;1.77;0.80;;;;;;;8.45;100.00;99866.25;5970442;28;20035;-72
2024/01/22 12:01:17;;;;;;;3.03;0.97;;;;;;;8.37;100.00;99864.34;5976326;28;20483;-72
2024/01/22 12:04:13;;;;;;;1.63;0.70;;;;;;;8.40;100.00;99867.69;5978393;28;20677;-72
2024/01/22 12:07:08;;;;;;;2.93;0.67;;;;;;;8.32;100.00;99860.50;5972331;28;20046;-73
2024/01/22 12:10:05;;;;;;;6.40;1.00;;;;;;;8.27;100.00;99863.59;5965537;28;20083;-73
2024/01/22 12:13:08;;;;;;;3.10;1.20;;;;;;;8.10;100.00;99851.19;5963318;29;20047;-73
2024/01/22 12:16:03;;;;;;;1.80;1.10;;;;;;;8.08;100.00;99858.44;5973670;28;20031;-73
2024/01/22 12:19:10;;;;;;;1.77;1.00;;;;;;;8.04;100.00;99854.47;5969650;28;20505;-72
2024/01/22 12:22:06;;;;;;;2.58;0.90;;;;;;;8.09;100.00;99860.13;5970840;28;20153;-72
2024/01/22 12:25:06;;;;;;;3.03;1.10;;;;;;;8.05;100.00;99850.00;5964755;29;20038;-73
2024/01/22 12:28:14;;;;;;;2.85;0.90;;;;;;;8.10;100.00;99850.38;5973849;28;20048;-73
2024/01/22 12:31:09;;;;;;;3.05;1.02;;;;;;;8.08;100.00;99842.59;5981358;28;20466;-74
2024/01/22 12:34:11;;;;;;;2.60;0.90;;;;;;;8.12;100.00;99849.25;5950672;29;20034;-72
2024/01/22 12:37:18;;;;;;;3.45;1.00;;;;;;;8.21;100.00;99832.47;5983772;28;20042;-72
2024/01/22 12:40:15;;;;;;;3.53;0.82;;;;;;;8.30;100.00;99836.06;5982953;28;20039;-73
2024/01/22 12:43:10;;;;;;;2.42;1.10;;;;;;;8.23;100.00;99825.25;5978705;28;20063;-72
2024/01/22 12:46:15;;;;;;;4.97;1.10;;;;;;;8.28;100.00;99823.00;5971286;28;20336;-71
2024/01/22 12:49:10;;;;;;;1.85;0.73;;;;;;;8.44;100.00;99824.94;5983016;28;20399;-71
2024/01/22 12:52:10;;;;;;;2.70;0.77;;;;;;;8.46;100.00;99815.03;5978317;28;20051;-72
2024/01/22 12:55:06;;;;;;;2.38;0.77;;;;;;;8.49;100.00;99830.59;5985674;28;20434;-71
2024/01/22 12:58:02;;;;;;;4.97;0.82;;;;;;;8.40;100.00;99814.84;5980753;28;20082;-72
2024/01/22 13:00:58;;;;;;;5.37;1.03;;;;;;;8.40;100.00;99820.94;5974811;28;20039;-72
2024/01/22 13:03:56;;;;;;;6.03;0.90;;;;;;;8.30;100.00;99826.31;5969428;28;20019;-72
2024/01/22 13:06:51;;;;;;;2.10;1.00;;;;;;;8.15;100.00;99827.81;5982131;28;20058;-72
2024/01/22 13:09:46;;;;;;;2.20;1.07;;;;;;;8.09;100.00;99823.16;5984190;28;20049;-73
2024/01/22 13:12:42;;;;;;;3.50;1.23;;;;;;;8.11;100.00;99836.19;5978665;28;20034;-71
2024/01/22 13:15:38;;;;;;;4.37;1.00;;;;;;;8.05;100.00;99832.34;5969545;28;20032;-70
2024/01/22 13:18:33;;;;;;;7.05;1.33;;;;;;;7.86;100.00;99837.78;5965989;28;20045;-71
2024/01/22 13:21:29;;;;;;;4.70;1.27;;;;;;;7.79;100.00;99842.00;5981285;28;20119;-72
2024/01/22 13:24:25;;;;;;;4.82;1.27;;;;;;;7.79;100.00;99857.84;5976139;28;20271;-70
2024/01/22 13:27:20;;;;;;;3.13;1.08;;;;;;;7.69;100.00;99860.53;5979995;28;20498;-70
2024/01/22 13:30:16;;;;;;;6.10;1.50;;;;;;;7.62;100.00;99887.66;5973798;28;20048;-71
2024/01/22 13:33:12;;;;;;;9.90;3.97;;;;;;;7.69;100.00;99912.50;5982394;28;20066;-72
2024/01/22 13:36:07;;;;;;;6.97;3.53;;;;;;;7.60;100.00;99934.47;5979134;28;20027;-72
2024/01/22 13:39:03;;;;;;;3.88;1.70;;;;;;;7.80;100.00;99936.84;5980820;28;20035;-70
2024/01/22 13:41:58;;;;;;;7.27;1.40;;;;;;;7.87;100.00;99945.03;5992350;28;20113;-71
2024/01/22 13:44:53;;;;;;;2.03;0.83;;;;;;;7.88;100.00;99930.81;5999273;28;20023;-71